classement nom prénom club naissance temps cat scratch/cat dossard
1 Westenhoeffer Fabrice Team Espace Marathon FRA 1970 00:34:29 M35 1 120
2 Dörr Hans-Jörg TV Hatzenbühl 1965 00:34:59 M40 1 207
3 Meinzer Stefan LT Graben 1971 00:35:09 M35 2 572
4 Coutable Sebastien Team Espace Marathon FRA 1976 00:35:15 M30 1 405
5 Erbs Bekim ANA RAS FRA 1976 00:35:34 M30 2 445
6 Marque Frederic RT Schweighouse FRA 1981 00:36:18 MHK 1 467
7 Guittet Denis ANA RAC Wissembourg FRA 1969 00:37:03 M35 3 152
8 Simon Clement ASPTT Strasbourg FRA 1968 00:37:49 M40 2 532
9 Endrulat Bastian TV Bad Bergzabern 1961 00:38:03 M45 1 81
10 Stephan Fabrice Scheffler France FFA 1979 00:38:46 MHK 2 635
11 Vollmer Olivier ANA Lauterbourg AC FRA 1976 00:38:57 M30 3 470
12 Bleibinger Artur .. 1964 00:39:02 M40 3 610
13 Barrile Robertino CUS Strasbourg FRA 1967 00:39:03 M40 4 511
14 Violi Patrick AS Gunther-Walter FFA 1957 00:39:06 M50 1 613
15 Klein Marius TV Bad Bergzabern 1991 00:39:19 MJB 1 630
16 Boellinger Bruno ANA RAC Wissembourg FRA 1959 00:39:34 M45 2 341
17 Kronenwett Nikolai BG Karlsbad 1989 00:39:48 MJA 1 596
18 Weber Marc ANA SG Wantzenau FRA 1967 00:39:52 M40 5 331
19 Lang Matthias TUS Hermannsburg 1974 00:40:11 M30 4 111
20 Schwamm Markus TV Bad Bergzabern 1963 00:40:15 M45 3 633
21 Netzer Sebastien Menchhoffen FRA 1980 00:40:32 MHK 3 561
22 Bücher Lothar LG Rheinstetten 1956 00:40:33 M50 2 438
23 Poyet Christine ANA RAC Wissembourg FRA 1982 00:40:36 WHK 1 404
24 Wagenblatt Bertram TSV 05 Rot 1960 00:40:56 M45 4 352
25 Linck Franck Ingolsheim FRA 1980 00:40:59 MHK 4 146
26 Lhost Christian Framieres European Runners BEL 1963 00:41:09 M45 5 218
27 Simon Laurent ASPTT Strasbourg FRA 1970 00:41:16 M35 4 418
28 Müller Larissa LAV ASICS Tübingen 1992 00:41:19 WJB 1 297
29 Eisenmann Gerd Motorradfreunde Schweigen-R. 1959 00:41:27 M45 6 459
30 Zerr Jeromie Hochstett FFA 1987 00:41:33 MHK 5 674
31 Schimmer Florian BCD 1988 00:41:38 MHK 6 492
32 Birger Philippe LSG Iffezheim 1975 00:41:44 M30 5 667
33 Ullrich Philipp TV Bad Bergzabern 1992 00:41:45 MJB 2 326
34 Wirtz Eric Lafa 1976 00:41:47 M30 6 657
35 Rendina Bruno Bischwiller FRA 1966 00:41:48 M40 6 658
36 Luttmann Michel Les Forts Trotters FRA 1971 00:41:51 M35 5 219
37 Klein Christophe Haguenau FRA 1968 00:41:58 M40 7 397
38 Weisse Henri ANA RAC Wissembourg FRA 1955 00:42:14 M50 3 413
39 Boulou Jean-Claude FC Altenstadt FRA 1959 00:42:20 M45 7 233
40 Schneider Patrick Buhl FRA 1970 00:42:26 M35 6 223
41 Geörger Erich TUS Schaidt 1962 00:42:30 M45 8 507
42 Wieneke Thorsten LT TSV Graben 1967 00:42:31 M40 8 469
43 Schön Hans-Georg TB Hermersberg 1962 00:42:36 M45 9 518
44 Thalmann Georges ANA RAC Wissembourg FRA 1967 00:42:37 M40 9 412
45 Striebig Claude . FRA 1972 00:42:41 M35 7 519
46 Clauss Alexis .. 1968 00:42:44 M40 10 629
47 Neinhüss-Janssen Annette TSV Weeze 1965 00:42:47 W40 1 125
48 Stattmüller Jürgen LG Kapellen-Drusweiler 1966 00:42:52 M40 11 104
49 Hess Achim TV Bad Bergzabern 1970 00:42:53 M35 8 678
50 Hoff Klaus LG SV Klingenmünster 1962 00:42:53 M45 10 463
51 Messner Christian Soultz sous Forets FRA 1970 00:42:57 M35 9 240
52 Voltz Serge Burstner / Lobsann FRA 1966 00:43:02 M40 12 172
53 Pegon Mathieu Velo Sport Brivadois FRA 1983 00:43:03 MHK 7 221
54 Kling Steffen LT Karlstern 1974 00:43:05 M30 7 293
55 Fuhrmann Peter Mannheim 1966 00:43:07 M40 13 258
56 Hirsch Wolfgang TV Rheinau Mannheim 1950 00:43:10 M55 1 616
57 Kerth Volker TV Bad Bergzabern 1964 00:43:12 M40 14 98
58 Iffrig Etienne ANA RAC Wissembourg FRA 1949 00:43:18 M55 2 160
59 Legat Terence Framieres European Runners BEL 1992 00:43:18 MJB 3 137
60 Dambach Dr. Thomas TSV Kandel 1961 00:43:19 M45 11 681
61 Borell Lothar LCO Edenkoben 1962 00:43:20 M45 12 271
62 Schweitzer Jean-Luc OH Morsbronn FRA 1960 00:43:22 M45 13 523
63 Hetzel Albert ISRI France FRA 1962 00:43:23 M45 14 495
64 Wendel Patrick TV Bad Bergzabern 1977 00:43:23 M30 8 71
65 Schneider Daniel Sulzbach 1982 00:43:31 MHK 8 8
66 Baudry Julien Strasbourg FRA 1972 00:43:35 M35 10 659
67 Gérard Michel ASC Ferco FRA 1965 00:43:37 M40 15 478
68 Siegel Norbert LTG Kämpfelbach 1952 00:43:40 M55 3 249
69 Buchert Pierre Schleithal FRA 1968 00:43:42 M40 16 655
70 Scheydt Norbert SV Oberotterbach 1951 00:43:45 M55 4 184
71 Happel Patrik Oberhoffen sur Moder FRA 1966 00:43:48 M40 17 410
72 Usselmann Richard Bischwiller FRA 1957 00:43:51 M50 4 482
73 Hauss Christophe La Saline 1963 00:43:55 M45 15 634
74 Häfele Wolfgang TG Stein 1962 00:43:55 M45 16 426
75 Zaepfel Jean-Marc CCSA Soufflenheim FRA 1960 00:43:58 M45 17 480
76 Hecht Remy Marienthal FRA 1955 00:44:00 M50 5 224
77 Roos Walter TV Bad Bergzabern 1971 00:44:03 M35 11 285
78 Mussler Agnes mein-erster-marathon.de 1959 00:44:09 W45 1 377
79 Morlock Marcus mein-erster-marathon.de 1975 00:44:10 M30 9 387
80 Theilmann Rolf TV Bad Bergzabern 1953 00:44:16 M55 5 69
81 Schuster Dedric OH Morsbronn FRA 1982 00:44:20 MHK 9 234
82 Flamang Jean-Pierre Framieres European Runners BEL 1966 00:44:21 M40 18 140
83 Lewillion Philippe Framieres European Runners BEL 1966 00:44:22 M40 19 144
84 Knittel Daniel Wissembourg FRA 1996 00:44:29 MSA 1 403
85 Hoffmann Erwin TV Bad Bergzabern 1961 00:44:31 M45 18 192
86 Zeitvogel Hubert Sasbachwalden 1965 00:44:42 M40 20 461
87 Frankfurter Horst Bobenthal 1969 00:44:46 M35 12 179
88 Ludwig Heiko memler.de 1963 00:44:47 M45 19 252
89 Dubois William Aventure Extreme FRA 1951 00:44:48 M55 6 161
90 Schopp Patrick ANA SG Wantzenau FRA 1959 00:44:50 M45 20 343
91 Loew Johannes memler.de 1961 00:44:51 M45 21 562
92 Kleinert Dominique Aventure Extreme FRA 1964 00:44:55 M40 21 122
93 Hartmann Karl-Heinz TV Bad Bergzabern 1966 00:44:56 M40 22 86
94 Frey Jean-Louis Hochstett FFA 1958 00:44:57 M50 6 675
95 Kaehny Frank .. FFA 1972 00:45:03 M35 13 576
96 Kronenwett Stefan HC Karlsbad 1986 00:45:06 MHK 10 300
97 Ebelshäuser Klaus TV Naturfreunde 1962 00:45:08 M45 22 504
98 Rott Bruno EV Seebach FRA 1964 00:45:09 M40 23 494
99 Tankosic Pierre RC Vandoeuvre FRA 1950 00:45:10 M55 7 162
100 Labarelle Marc ASL Rugby FRA 1964 00:45:14 M40 24 334
101 Frisch Jochen running artist 1958 00:45:21 M50 7 473
102 Vogel Rudi SV Werschweiler 1945 00:45:25 M60 1 599
103 Krszyk Paul SFG Serres 1961 00:45:26 M45 23 571
104 Reinagel Jean-Claude Schaeffler France FRA 1959 00:45:30 M45 24 520
105 Schopp Bernhard Schleithal FFA 1953 00:45:30 M55 8 623
106 Deck Felix mein-erster-marathon.de 1952 00:45:31 M55 9 383
107 Walter Eugene La Saline FRA 1960 00:45:33 M45 25 213
108 Becht Andreas Motorradfreunde Kapellen 1981 00:45:35 MHK 11 639
109 Schmaltz Yves La Saline FRA 1968 00:45:39 M40 25 337
110 Gerstenmeyer Max Pleisweiler 1988 00:45:42 MHK 12 296
111 Schurer Hendrik ASV Landau Tri 1971 00:45:43 M35 14 705
112 Neu Günter LAG Obere Murg 1953 00:45:45 M55 10 2
113 Kirchen Frantz Strasbourg FRA 1970 00:45:49 M35 15 338
114 Ganz Markus FV Sportfreunde Forchheim 1968 00:45:52 M40 26 618
115 Gittler Thomas TV Bad Bergzabern 1990 00:45:57 MJA 2 643
116 Schneider Julian Gossersweiler 1990 00:45:57 MJA 3 524
117 Tartar Guillaume Strasbourg FRA 1983 00:46:01 MHK 13 168
118 Walther Eric . 1975 00:46:03 M30 10 490
119 Cuntz Stefan SV Oberotterbach 1975 00:46:06 M30 11 307
120 Hauck Carsten SV Oberotterbach 1975 00:46:09 M30 12 287
121 Neuhart Thomas Südpfalz Therme BZA 1963 00:46:12 M45 26 58
122 Seitz Herve ASCEE 67 FRA 1964 00:46:14 M40 27 414
123 Moritz Brigitte TV Rastatt-Rheinau 1952 00:46:18 W55 1 36
124 Hofmann Thomas Dury Roadrunner Landau 1974 00:46:18 M30 13 486
125 Arnold Andreas Mannheim 1963 00:46:19 M45 27 56
126 Erdogan Adem CM Haguenau FRA 1968 00:46:24 M40 28 417
127 Faust Günter TB Hermersberg 1964 00:46:25 M40 29 431
128 Acker Thomas BSG SpK Südliche Weinstraße 1964 00:46:26 M40 30 362
129 Kehrwald Peter SV Münchweiler 1966 00:46:28 M40 31 364
130 Hoffmeyer Jean-Francois Gres En Tete FRA 1971 00:46:31 M35 16 446
131 Schütz Jürgen TV Bad Bergzabern 1955 00:46:32 M50 8 485
132 Hartmann Francois .. FFA 1963 00:46:37 M45 28 617
133 Wust Jean-Michel La Saline FRA 1966 00:46:39 M40 32 552
134 Pfalzgraf Jürgen Montessori Schule Landau 1967 00:46:40 M40 33 491
135 Lehmann Jörg Kapsweyer 1955 00:46:46 M50 9 430
136 Friedel Janine LLG Drei Buchen 1980 00:46:55 WHK 2 510
137 Albrecht Mathias TV Bad Bergzabern 1964 00:47:04 M40 34 228
138 Schiff Mastiol .. FFA 1972 00:47:06 M35 17 673
139 Bischof Nikolaus SG Stern Rastatt 1956 00:47:07 M50 10 366
140 Hoffmeyer Yves Aventure Extreme FRA 1967 00:47:08 M40 35 124
141 Rohde Christopher TV Bad Bergzabern 1967 00:47:10 M40 36 74
142 Zepp Christoph TV Bad Bergzabern 1979 00:47:18 MHK 14 62
143 Fuchs Mathieu Coiff-Club FRA 1966 00:47:19 M40 37 568
144 Scherrer Jean Marmoutier FFA 1951 00:47:25 M55 11 611
145 Hoffmann Thomas TV Bad Bergzabern 1958 00:47:26 M50 11 82
146 Löhlau Ronja TV Bad Bergzabern 1996 00:47:33 WSA 1 325
147 Anderer Werner Waldbronn 1959 00:47:34 M45 29 474
148 Becker Susanne Rhodt 1969 00:47:35 W35 1 615
149 Petilliot Elke TSG Wiesloch 1958 00:47:37 W50 1 656
150 Knittel Patrice Wissembourg FRA 1968 00:47:38 M40 38 248
151 Scholz Aura memler.de 1969 00:47:39 W35 2 560
152 Joerger André ANA RAC Wissembourg FFA 1951 00:47:40 M55 12 600
153 Leibold Michael Gefängnis Rastatt 1969 00:47:40 M35 18 345
154 Wenzel Andreas Gefängnis Rastatt 1981 00:47:41 MHK 15 344
155 Hermann Bernd Gefängnis Rastatt 1960 00:47:41 M45 30 347
156 Hüsch Peter Gefängnis Rastatt 1966 00:47:42 M40 39 346
157 Boellinger Patrick Gefängnis Rastatt FRA 1954 00:47:42 M50 12 299
158 Meyer Fabien Burstner / Climbach FRA 1969 00:47:43 M35 19 173
159 Thiery  Jochen .. 1978 00:47:45 M30 14 649
160 Falk Rainer SV Diefenbach 1962 00:47:45 M45 31 107
161 Gläßgen Herbert SV Diefenbach 1955 00:47:46 M50 13 108
162 Kolb Patrick Schweighofen 1969 00:47:47 M35 20 647
163 Mayer Dieter LAC Dahn 1965 00:47:47 M40 40 577
164 Ehrismann Marianne ANA RAC Wissembourg 1966 00:47:48 W40 2 439
165 Fimpel Monika TSV Annweiler 1957 00:47:51 W50 2 456
166 Knaebel Sebastien Profil Alsace / Riedseltz FRA 1975 00:47:51 M30 15 154
167 Pinheiro Sebastian .. FFA 1979 00:47:55 MHK 16 582
168 Dienes Georg TV Steinweiler 1963 00:47:57 M45 32 669
169 Mertz Thomas Naturfreunde Pirmasens 1963 00:47:57 M45 33 503
170 Brault Antoine ANA RAC Wissembourg FRA 1995 00:48:00 MSA 2 645
171 Donnate Marie-Claude ASCEE 67 FRA 1966 00:48:01 W40 3 339
172 Schmitt Karl-Heinz TC Weiskirchen 1958 00:48:02 M50 14 134
173 Ständlin Ralf SG Stern Rastatt 1967 00:48:04 M40 41 178
174 Knittel Rene Wissembourg FRA 1964 00:48:06 M40 42 268
175 Capraro Tommaso Framieres European Runners BEL 1968 00:48:08 M40 43 135
176 Hoeffler Isabelle Rohrbach les Bitche FRA 1962 00:48:09 W45 2 450
177 Hoeffler Aime Rohrbach les Bitche FRA 1961 00:48:09 M45 34 451
178 Gayer Ben Dingsheim FRA 1960 00:48:10 M45 35 516
179 Herberger Dieter LG Rülzheim 1966 00:48:13 M40 44 539
180 Lawrenz Jörg FC Hansa Rostock 1975 00:48:14 M30 16 53
181 Hoffmann Bernd LG Rülzheim 1963 00:48:20 M45 36 537
182 Picard Cedric .. 1979 00:48:22 MHK 17 581
183 Hoyndorf Roland Woerth FRA 1955 00:48:24 M50 15 269
184 Keller Thomas LCO Edenkoben 1958 00:48:25 M50 16 262
185 Cronauer Torsten FFW Münchweiler 1969 00:48:26 M35 21 559
186 Grolik Sebastian Rechtenbach 1987 00:48:27 MHK 18 257
187 Eichenlaub Julia Schweighofen 1986 00:48:28 WHK 3 286
188 Ullrich Susanne TV Bad Bergzabern 1968 00:48:29 W40 4 327
189 Greiner Sven Landau Godramstein 1975 00:48:38 M30 17 28
190 Donnate Philippe ASCEE 67 FRA 1964 00:48:40 M40 45 340
191 Mestdagh Michele Framieres European Runners BEL 1953 00:48:46 M55 13 141
192 Bastien Cedric FER FRA 1975 00:48:47 M30 18 517
193 Zepp Stephan TV Bad Bergzabern 1978 00:48:47 M30 19 61
194 Saporito Sylvano Framieres European Runners BEL 1979 00:48:49 MHK 19 143
195 Weber Laurent FCJAB Bischwiller FRA 1969 00:48:52 M35 22 236
196 Knaebel Robert Profil Alsace / Riedseltz FRA 1963 00:48:53 M45 37 157
197 Burrer Birgit Rutesheim-just for fun- 1962 00:48:54 W45 3 275
198 Zeitvogel Andreas Sinzheim 1971 00:49:02 M35 23 462
199 Scheidt Damien La Saline FRA 1962 00:49:03 M45 38 551
200 Brunck Arno SV Oberotterbach 1962 00:49:03 M45 39 10
201 Motz Freddy ANA RAC Wissembourg FRA 1958 00:49:04 M50 17 198
202 Albenesius Francois La Saline FRA 1955 00:49:05 M50 18 538
203 von Hauckewitz Michael SF Dierbach 1968 00:49:06 M40 46 545
204 Baier Andreas Siemens Laufteam 1970 00:49:07 M35 24 22
205 Ziegler Peter St. Martin 1975 00:49:08 M30 20 109
206 Hebting Virginie IBAL FFA 1969 00:49:09 W35 3 575
207 Kreiss Franck La Saline FRA 1968 00:49:10 M40 47 401
208 Brossart Elvira TV Bad Bergzabern 1961 00:49:12 W45 4 92
209 Schimpf Patrik Steinfeld 1975 00:49:13 M30 21 363
210 Pfenninger Horst TSG Niefern 1937 00:49:14 M70 1 132
211 Seibel Christoph Maikammer 1972 00:49:16 M35 25 508
212 Zirker Gerhard LT Leimersheim 1965 00:49:17 M40 48 429
213 Vilsmeier Thomas mein-erster-marathon.de 1972 00:49:17 M35 26 652
214 Allmann Markus Lug 1959 00:49:18 M45 40 529
215 Morlock Martina mein-erster-marathon.de 1979 00:49:20 WHK 4 379
216 Reith Matthias FC Obereschenbach 1963 00:49:22 M45 41 544
217 Schlindwein Claudia Schweigener Schnellfieß 1967 00:49:24 W40 5 502
218 Eglin Yannick TUS Schaidt 1977 00:49:27 M30 22 637
219 Regitz Erika TV Denzlingen 1946 00:49:31 W60 1 253
220 Spieser Jean-Paul CSL Neuf-Brisach FRA 1963 00:49:32 M45 42 526
221 Duda Detlev TV Rheinau 1950 00:49:33 M55 14 509
222 Bachmann Kai FC Palatia Limbach 1968 00:49:35 M40 49 43
223 Wüst Harriet LLG Drei Buchen 1974 00:49:36 W30 1 230
224 Münch Sabine LG Rülzheim 1959 00:49:37 W45 5 322
225 Behr Wolfgang LG Rülzheim 1951 00:49:38 M55 15 321
226 Bühler Yves ANA Lauterbourg AC FRA 1964 00:49:40 M40 50 483
227 Hund Jean-Marc AS CPAM Strasbourg FRA 1955 00:49:46 M50 19 488
228 Leroy Maurice Henri Stosswihr FRA 1966 00:49:48 M40 51 406
229 Koch Martin Frankfurt Marathonclub 113 1956 00:49:50 M50 20 19
230 Gebhart Jean-Claude Niederschaeffolsheim FRA 1964 00:49:51 M40 52 400
231 Buf Cyrill BA 901 / Drachenbronn FRA 1986 00:49:52 MHK 20 329
232 Strasser Pascal ANA Lauterbourg AC FRA 1967 00:49:53 M40 53 235
233 Alvarez Francisco ANA Lauterbourg AC FRA 1965 00:50:00 M40 54 498
234 Wolff Christopher Hopital de Haguenau FRA 1966 00:50:06 M40 55 333
235 Seither Kathie TV Herxheim 1961 00:50:07 W45 6 458
236 Bender Christian Möbel Weber Team 1978 00:50:08 M30 23 703
237 Vieser Daniel Karlsruhe 1974 00:50:10 M30 24 553
238 Klix Volker SC Preuschdorf FFA 1967 00:50:11 M40 56 597
239 Follenvogel Raymond Saline FFA 1958 00:50:12 M50 21 588
240 Scheydt Christian .. 1993 00:50:13 MSA 3 668
241 Pappalardo Carlo TV Bad Bergzabern 1964 00:50:14 M40 57 65
242 Burrer Rudi SFG Serres 1955 00:50:15 M50 22 570
243 Perseke Paul TV Bad Bergzabern 1949 00:50:17 M55 16 77
244 Reich Thomas TV Kieselbronn 1959 00:50:19 M45 43 9
245 Schröder Andi Borussia Fan Club Schweiz SUI 1964 00:50:22 M40 58 680
246 Cuntz Timo Scuzzlebutt 1982 00:50:27 MHK 21 607
247 Krieger Andre Wissembourg FRA 1955 00:50:27 M50 23 497
248 Mayer Dominik Scuzzlebutt 1982 00:50:28 MHK 22 608
249 Eschelbach Iris TV Rheinau 1965 00:50:36 W40 6 105
250 Bassaget Jeremy BA 901 / Drachenbronn FRA 1984 00:50:38 MHK 23 54
251 Labarelle Simone ANA Lauterbourg AC FRA 1964 00:50:40 W40 7 292
252 Schulz Hans-Peter TV Bad Bergzabern 1962 00:50:41 M45 44 627
253 Ehrismann Gilbert TV Bad Bergzabern 1951 00:50:46 M55 17 440
254 Moster Karola mein-erster-marathon.de 1966 00:50:47 W40 8 375
255 Blumenstiel Thomas LG Guttenburg Oberotterbach 1959 00:50:47 M45 45 573
256 Henry Damien Strasbourg FRA 1968 00:50:49 M40 59 399
257 Glauber Wilfried NW-Diedesfeld 1953 00:50:49 M55 18 7
258 Zastrow Thorsten Karlsruhe 1977 00:50:51 M30 25 425
259 Simon Florian SV Oberotterbach 1993 00:50:53 MSA 4 686
260 Magosch Jens Muggensturm 1979 00:50:54 MHK 24 506
261 Aron Fabien De Dietrich Thermique FRA 1973 00:50:55 M35 27 420
262 Frey Martina TV Bad Bergzabern 1969 00:50:55 W35 4 126
263 Eberhardt Claude Trimbach FRA 1966 00:50:57 M40 60 163
264 Grunenwald Andre Haguenau FRA 1957 00:50:58 M50 24 116
265 Pourre Claude Wissembourg FRA 1949 00:51:00 M55 19 443
266 Weishaar Pierre La Saline FRA 1960 00:51:13 M45 46 541
267 Oehler Thomas SG Stern Rastatt 1978 00:51:15 M30 26 365
268 Kühn Simon TV Bad Bergzabern 1990 00:51:18 MJA 4 631
269 Riesbeck Fabian Oberotterbach 1991 00:51:19 MJB 4 555
270 Bastian Patrice Wissembourg FRA 1960 00:51:20 M45 47 169
271 Teeuwsen Lothar KSV LWT Kevelaer 1959 00:51:21 M45 48 302
272 Jäger Johannes TV Bad Bergzabern 1998 00:51:23 MSA 5 84
273 Jäger Uwe TV Bad Bergzabern 1965 00:51:24 M40 61 83
274 Schmilt Marie Sylvaine Climbach FRA 1956 00:51:29 W50 3 554
275 Hairaye-Remy Helene Vendenheim FRA 1986 00:51:30 WHK 5 51
276 Job Dr. Wilhelm VFV Bechenheim 1938 00:51:31 M70 2 279
277 Lecomte Rudy Framieres European Runners BEL 1959 00:51:32 M45 49 142
278 Lagas Stephanie La Saline FRA 1975 00:51:33 W30 2 330
279 Koehl Daniel La Saline FRA 1955 00:51:33 M50 25 255
280 Arnholt Jean Michel Burstner / Seebach FRA 1970 00:51:35 M35 28 171
281 Ackermann Gabriele ANA Lauterbourg AC FRA 1962 00:51:36 W45 7 210
282 Rylik Gerhard LG Kapellen-Drusweiler 1963 00:51:39 M45 50 48
283 Steinhoff Roland LBS-BW Laufteam 1950 00:51:39 M55 20 197
284 Schaudel Lina mein-erster-marathon.de 1983 00:51:41 WHK 6 376
285 Bentz Gregory Holtzheim FRA 1980 00:51:44 MHK 25 444
286 Bingler Stefan TV Bad Bergzabern 1960 00:51:45 M45 51 80
287 Schmitt Laurent Climbach FRA 1953 00:51:46 M55 21 556
288 Bernhard Hubert Oberotterbach 1968 00:51:47 M40 62 527
289 Herberger Theo LG Rülzheim 1937 00:51:50 M70 3 540
290 Bitzer Bärbel TV Bad Bergzabern 1964 00:51:50 W40 9 90
291 Schau Wolfgang .. 1961 00:51:51 M45 52 670
292 Haffemayer Franck ASC Ferco FRA 1966 00:51:51 M40 63 479
293 Jaedicke Hagen LC Bad Dürkheim 1945 00:51:53 M60 2 476
294 Braun Nicole Schleithal FRA 1951 00:51:55 W55 2 158
295 Weisgerber Joseph Schleithal FRA 1958 00:51:55 M50 26 514
296 Burck Sebastien Burstner / Schleithal FRA 1977 00:51:56 M30 27 170
297 Buhler Vincent ANA Lauterbourg AC FRA 1959 00:51:56 M45 53 209
298 Priester Anke Neustadt 1969 00:51:58 W35 5 102
299 Masser Michael Budo-Club Zeiskam 1965 00:51:59 M40 64 103
300 Aengenheyster Andrea KSV LWT Kevelaer 1969 00:52:00 W35 6 304
301 Himmeöhan Bianca Otterstadt 1991 00:52:01 WJB 2 614
302 Meyer Gustl TV Bad Bergzabern 1945 00:52:02 M60 3 96
303 Miksch Peter LAC Insheim 1955 00:52:03 M50 27 499
304 Pfaff Jens TV Bad Bergzabern 1978 00:52:03 M30 28 68
305 Hemmerle Philippe Altenstadt FRA 1976 00:52:05 M30 29 220
306 Endrulat Dederic TV Bad Bergzabern 1997 00:52:13 MSA 6 468
307 Hefter Uwe Rutesheim-just for fun- 1958 00:52:14 M50 28 276
308 Hunsalz Markus mein-erster-marathon.de 1978 00:52:17 M30 30 651
309 Ullrich Stefan TV Bad Bergzabern 1963 00:52:20 M45 54 328
310 Schimpf Walter TV Bad Bergzabern 1946 00:52:20 M60 4 101
311 Wander Volker TV Bad Bergzabern 1960 00:52:21 M45 55 280
312 Emser Stefan FV Oberbexbach 1960 00:52:26 M45 56 315
313 Heinzerling Claus mein-erster-marathon.de 1959 00:52:27 M45 57 382
314 Brucker Regina LG Allahopp 1961 00:52:29 W45 8 281
315 Bertsch Dieter LG Haardt 1938 00:52:30 M70 4 350
316 Broda Benedikt TV Bad Bergzabern 1996 00:52:31 MSA 7 353
317 Kurz Fabio TV Bad Bergzabern 1996 00:52:32 MSA 8 298
318 Heintz Cathie La Saline FRA 1963 00:52:33 W45 9 531
319 Bacher Jean-Marc La Saline 1968 00:52:34 M40 65 646
320 Pfaff Jean Marc Schleithal FRA 1970 00:52:35 M35 29 118
321 Metz Bernhard TV Bad Bergzabern 1961 00:52:39 M45 58 72
322 Brück Charlotte TV Rheinzabern 1955 00:52:39 W50 4 496
323 Gertz Remy . 1961 00:52:51 M45 59 543
324 Straßer Ansgar Kapsweyer 1962 00:52:55 M45 60 360
325 Wetzel Thomas Rohrbach 1963 00:53:01 M45 61 290
326 Mehlem Marco .. 1978 00:53:02 M30 31 632
327 Herrmann Rolf DJK Rüppurr 1961 00:53:07 M45 62 284
328 Schmidt Michael DJK Rüppurr 1955 00:53:08 M50 29 283
329 Gruss Cedric OH Morsbronn FRA 1976 00:53:09 M30 32 239
330 Breithaupt Rolf Karlsbad 1945 00:53:10 M60 5 117
331 Haubold Wilhelm TV Bad Bergzabern 1954 00:53:11 M50 30 79
332 Kubach Manfred Stutensee 1951 00:53:11 M55 22 558
333 Höflacher Lukas Kanuverein SÜW 1990 00:53:12 MJA 5 530
334 Kirchen Fatima Strasbourg FRA 1971 00:53:12 W35 7 167
335 Reininger Rudi LG Kapellen-Drusweiler 1946 00:53:13 M60 6 701
336 Lautz Franz Oberotterbach 1991 00:53:14 MJB 5 654
337 Vojacek Silva Gesundh.werkstatt Dudenhofen 1966 00:53:16 W40 10 202
338 Sprotte Rainer Oberotterbach 1954 00:53:18 M50 31 661
339 Exss Bettina memler.de 1969 00:53:19 W35 8 563
340 Hakmi Hakkoum Lutzelbourg FRA 1965 00:53:22 M40 66 567
341 Gib Dieter Möbel Weber Team 1960 00:53:23 M45 63 702
342 Lacote Thierry .. FFA 1965 00:53:24 M40 67 626
343 Vron Lionel Wissembourg FFA 1975 00:53:26 M30 33 580
344 Weber Harald Landau 1953 00:53:27 M55 23 316
345 Hannes Heike LT Bad Dürrheim 1959 00:53:30 W45 10 265
346 Kehle Wolfgang LT Bad Dürrheim 1946 00:53:31 M60 7 266
347 Braye Fabien Schroff Sport FRA 1970 00:53:34 M35 30 214
348 Kern Gaby TSV Kandel 1973 00:53:39 W35 9 542
349 Frey Jean-Paul TTNA Tennis de Table FRA 1966 00:53:40 M40 68 150
350 Gooss Sunnhilde LBS-BW Laufteam 1974 00:53:42 W30 3 187
351 Riefstahl-Harter Marc .. FFA 1966 00:53:49 M40 69 602
352 Müller Ralph .. FFA 1962 00:53:51 M45 64 587
353 Nawrath Brigitte memler.de 1962 00:53:53 W45 11 188
354 Eßer-Sladek Beata Germersheim POL 1966 00:53:54 W40 11 186
355 Wetzel Jürgen Rohrbach 1966 00:53:55 M40 70 291
356 Maurer Ludwig SG Stern Gaggenau 1944 00:53:58 M60 8 624
357 Schneider Matthias mein-erster-marathon.de 1973 00:53:59 M35 31 381
358 Haßelwander Jürgen TV Bad Bergzabern 1980 00:54:00 MHK 26 73
359 Meyer Friedrich mein-erster-marathon.de 1956 00:54:01 M50 32 256
360 Häfner Ulrike TVE Weiher 1959 00:54:04 W45 12 428
361 Müller Thomas ESV Bad Schandau 1970 00:54:05 M35 32 175
362 Edlefsen Elisabeth TV Rheinzabern 1958 00:54:07 W50 5 598
363 Thiery Sayah .. 1972 00:54:16 M35 33 653
364 Dumesnil Bruno Oberroedern FRA 1967 00:54:17 M40 71 402
365 Billon Laurent AS CPAM Strasbourg FRA 1969 00:54:18 M35 34 396
366 Ehret Werner TSV Annweiler 1949 00:54:19 M55 24 604
367 Eisenhut Ralf IOC Racing Team 1977 00:54:21 M30 34 650
368 Henke Patrick Karlsruhe 1977 00:54:22 M30 35 662
369 Lauth Gerard France Adot FRA 1937 00:54:27 M70 5 940
370 Hanemann Alexander mein-erster-marathon.de 1968 00:54:28 M40 72 380
371 Widmann Jacques Lauterbourg FRA 1961 00:54:32 M45 65 471
372 Zimmer Michael Dury Roadrunner Landau 1972 00:54:34 M35 35 487
373 Steiger Monika LG Rülzheim 1963 00:54:36 W45 13 200
374 Kalmbach Joe LG Rülzheim 1955 00:54:37 M50 33 199
375 Bellwon Eric LBS-BW Laufteam 1961 00:54:41 M45 66 52
376 Moritz Hermann TV Rastatt-Rheinau 1951 00:54:42 M55 25 37
377 Pibre Marie-Odile Wissembourg FRA 1958 00:54:43 W50 6 447
378 Pibre Jacky Wissembourg FRA 1958 00:54:44 M50 34 449
379 Ammann Bernd Rock'n Roll-Club Karlsruhe 1955 00:54:45 M50 35 535
380 Hinkel Friedrich TV Lemberg 1940 00:54:48 M65 1 586
381 Rehm Michael Motorradfreunde Schweigen-R. 1968 00:54:49 M40 73 460
382 Thiel Regina LC Donnersberg 1941 00:55:06 W65 1 183
383 Räpple Ute VLG Maximiliansau 1970 00:55:08 W35 10 603
384 Praska Alfred VLG Maximiliansau 1948 00:55:09 M60 9 272
385 Weimer Ruth TSG Wiesloch 1952 00:55:10 W55 3 683
386 Czaya Joachim TV Bad Bergzabern 1975 00:55:17 M30 36 127
387 Zepp Otto TV Bad Bergzabern 1953 00:55:18 M55 26 60
388 Dahm Uwe Schweigen 1958 00:55:20 M50 36 115
389 Inderfurth Ulrich Karlsruhe 1959 00:55:23 M45 67 46
390 Seibel Gerhard LG Allahopp 1959 00:55:25 M45 68 282
391 Urbain Philippe Framieres European Runners BEL 1976 00:55:27 M30 37 217
392 Olsiewicz Michael VFL Bellheim 1952 00:55:31 M55 27 472
393 Dessarps Philippe Ludwigsburg 1971 00:55:33 M35 36 557
394 Maisch Bernhard 10-5 AOK 1954 00:55:42 M50 37 33
395 Kaminski Ilonka Speedteam Alzenau 1955 00:55:43 W50 7 129
396 Kaminski Werner Speedteam Alzenau 1956 00:55:43 M50 38 130
397 Hirsch Irmgard TV Herxheim 1956 00:55:44 W50 8 591
398 Kuntz Patrick .. FFA 1961 00:55:45 M45 69 609
399 Greiner Peter .. 1963 00:55:45 M45 70 642
400 Jacobi Gerhard mein-erster-marathon.de 1949 00:55:48 M55 28 23
401 Jochim Maria TV Herxheim 1945 00:55:50 W60 2 295
402 Keller Josiane ASSA FRA 1961 00:55:51 W45 14 153
403 Müller Anne TV Herxheim 1960 00:55:52 W45 15 590
404 Jochim Klaus TV Herxheim 1938 00:55:53 M70 6 294
405 Doerr Didier .. FFA 1969 00:55:55 M35 37 601
406 Janson Beate TV Bad Bergzabern 1950 00:55:57 W55 4 93
407 Franke Markus mein-erster-marathon.de 1979 00:55:58 MHK 27 385
408 Fetzer Maximiliano TV Bad Bergzabern 1994 00:55:59 MSA 9 320
409 Mutschler Dominique Seebach FRA 1967 00:56:00 M40 74 164
410 Fischer Christine LT Karlsruhe 1970 00:56:09 W35 11 367
411 Böhm Manfred TV Bad Bergzabern 1938 00:56:10 M70 7 95
412 Kempinger Pius TV Hayna 1950 00:56:11 M55 29 636
413 Mack Karl-Ludwig Kapsweyer 1956 00:56:13 M50 39 358
414 Geißler Frank TSG Maxdorf 1962 00:56:14 M45 71 5
415 Ragg Steffen Hermerswiller FRA 1966 00:56:16 M40 75 356
416 Goetzmann Frederic Rittershoffen 1938 00:56:17 M70 8 464
417 Ohler Norbert Karlsruhe 1972 00:56:20 M35 38 182
418 Heilmann  Ralf Kandel 1964 00:56:21 M40 76 589
419 Saalbach Dirk Germania Karlsruhe 1970 00:56:23 M35 39 521
420 Eichenlaub Marie-Paule Profil Alsace / Altenstadt FRA 1969 00:56:25 W35 12 155
421 Hotz-Wagenblatt Agnes TSV 05 Rot 1957 00:56:27 W50 9 351
422 Schwögler Benjamin Bad Bergzabern 1980 00:56:34 MHK 28 323
423 Schusterbauer Daniel Karlsruhe 1970 00:56:35 M35 40 45
424 Pleschke Peter LG Kapellen-Drusweiler 1951 00:56:37 M55 30 261
425 Teuliere Claude Ostwald FRA 1949 00:56:37 M55 31 679
426 Reiners Karsten Esslingen am Neckar 1974 00:56:39 M30 38 251
427 Giessenhoffer Eric Mutzig FRA 1967 00:56:41 M40 77 243
428 Grübel Frank mein-erster-marathon.de 1962 00:56:50 M45 72 384
429 Kurz Birgit TV Bad Bergzabern 1961 00:56:52 W45 16 513
430 Vierneisel Michael mein-erster-marathon.de 1976 00:56:56 M30 39 386
431 Joerger Arnaud Hochfelden FRA 1971 00:56:59 M35 41 525
432 Poyet André ANA RAC Wissembourg FRA 1948 00:57:04 M60 10 677
433 Kupitz Bernd TV Kirchardt LT 1945 00:57:07 M60 11 441
434 Fladerer Wolfgang Ranstadt 1952 00:57:08 M55 32 247
435 Heinz Heidi TSV Annweiler 1966 00:57:10 W40 12 457
436 Walther Reinhold .. 1963 00:57:11 M45 73 644
437 Hecker Simone Triatlon Hochfelden 1961 00:57:17 W45 17 593
438 Metz Joachim Rohrbach 1961 00:57:18 M45 74 288
439 Hoffmann Egon TV Ottersheim 1947 00:57:19 M60 12 437
440 Edighoffer Roland Oberhoffen les Wissembourg FRA 1960 00:57:22 M45 75 342
441 Weisser Thomas LT Bad Dürrheim 1963 00:57:25 M45 76 263
442 Frank Andrea VLG Maximiliansau 1966 00:57:25 W40 13 549
443 Blum Werner memler.de 1958 00:57:26 M50 40 550
444 Stein Markus Festo Running Team Rohrbach 1972 00:57:30 M35 42 191
445 Landherr Markus TV Bad Bergzabern 1962 00:57:32 M45 77 619
446 Schimmer Udo Haßloch 1951 00:57:33 M55 33 493
447 Vojacek Leopold Gesundh.werkstatt Dudenhofen 1962 00:57:38 M45 78 201
448 Handermann Stefan Gesundh.werkstatt Dudenhofen 1969 00:57:39 M35 43 244
449 Kauff Stefan Schweighofen 1964 00:57:40 M40 78 181
450 Vallée Tom .. FFA 1992 00:57:40 MJB 6 612
451 Gicquel Elwenn St. Martin 1986 00:57:41 WHK 7 110
452 Fladerer Julian Ranstadt 1993 00:57:42 MSA 10 246
453 Beitendorf  Sina .. 1980 00:57:44 WHK 8 579
454 Huthmacher Sandra TV Bad Bergzabern 1989 00:57:46 WJA 1 193
455 Kuntz Matthias TV Bad Bergzabern 1966 00:57:47 M40 79 87
456 Flos Gerda TV Bad Bergzabern 1960 00:57:48 W45 18 94
457 Endrulat Alexandra TV Bad Bergzabern 1961 00:57:48 W45 19 88
458 Moser Joachim TV Bad Bergzabern 1970 00:57:49 M35 44 91
459 Tremmel Willi KSV Steinklingen 1949 00:57:53 M55 34 14
460 Cunin Alexia Mutzig FRA 1971 00:57:58 W35 13 242
461 Budzen Harald Landau 1963 00:58:03 M45 79 277
462 Klein Werner Haguenau FRA 1941 00:58:09 M65 2 398
463 Ferry Jean-Francois AS CPAM Strasbourg FRA 1968 00:58:10 M40 80 393
464 Klein Geraldine BA 901 / Drachenbronn FRA 1983 00:58:10 WHK 9 332
465 Herm Elisabeth memler.de 1971 00:58:11 W35 14 313
466 Descamps Pierre Framieres European Runners BEL 1951 00:58:11 M55 35 139
467 Aumann Bernhard PSV GW Ludwigshafen 1956 00:58:12 M50 41 106
468 Martin Hermann Schweighofen 1956 00:58:13 M50 42 180
469 Hess Fritz Finn-Eileen 1948 00:58:15 M60 13 427
470 Baumgärtner Udo Rohrbach 1962 00:58:16 M45 80 289
471 Meyer Robin Worms 1978 00:58:17 M30 40 50
472 Seibel Manfred Landau 1940 00:58:20 M65 3 317
473 Joerger Maurice Mothern FRA 1945 00:58:26 M60 14 660
474 Teiniliä Susanna Biel SUI 1964 00:58:30 W40 14 177
475 Ring Werner TV Rheinzabern 1959 00:58:31 M45 81 16
476 Roidl Rudolf Bremen 1951 00:58:35 M55 36 453
477 Elischer Reiner LG Schwabe 1959 00:58:36 M45 82 131
478 Näger Georg mem 1963 00:58:38 M45 83 565
479 Guckert Charles Schleithal FRA 1941 00:58:39 M65 4 222
480 Breuer Connie Intependent Biker KA 1965 00:58:40 W40 15 11
481 Müller Daniela Bad Bergzabern 1981 00:58:43 WHK 10 324
482 Schuler Anne La Saline FRA 1978 00:58:49 W30 4 212
483 Armbruster Martin .. FFA 1963 00:58:52 M45 84 585
484 Merz  Reinhard LT Gummibärchen 1954 00:58:56 M50 43 578
485 Otto Silvia LC Bad Dürkheim 1965 00:58:58 W40 16 176
486 Sona Ronald TV Rheinzabern 1951 00:58:59 M55 37 475
487 Mester Isabelle Framieres European Runners BEL 1968 00:59:01 W40 17 138
488 Legat Philippe Framieres European Runners BEL 1966 00:59:02 M40 81 136
489 Joerger Stephane .. 1970 00:59:03 M35 45 665
490 Saint-Julien Patrick Pforzheim FRA 1975 00:59:07 M30 41 433
491 Stephan Jutta Schweighofen 1969 00:59:08 W35 15 204
492 Oster Werner LT Schweighofen 1966 00:59:09 M40 82 119
493 Schlinck Michael MSC Rammberg 1969 00:59:15 M35 46 505
494 Hartmann Sonja TV Bad Bergzabern 1972 00:59:16 W35 16 638
495 Heintz Silvio Kapsweyer 1965 00:59:21 M40 83 359
496 Lutz Andreas LG Isch noch weit 1965 00:59:22 M40 84 528
497 Fischer Theobald Leonberg 1954 00:59:23 M50 44 423
498 Spranz Brigitte Kircheim/Teck 1952 00:59:25 W55 5 454
499 Pfeifer Ursula LG Rülzheim 1965 00:59:26 W40 18 522
500 Van den Berghe Dimitri Wissembourg FRA 1974 00:59:27 M30 42 114
501 Bush Julia Karlsruhe 1983 00:59:33 WHK 11 310
502 Klemcyk Stephan Düsseldorf 1957 00:59:37 M50 45 196
503 Bastien Jacques Framieres European Runners BEL 1950 00:59:44 M55 38 145
504 Wünstel-Schiefer Ruth TV Bad Bergzabern 1958 00:59:46 W50 10 97
505 Wirth Tobias SPVGG Remingen 1991 00:59:49 MJB 7 21
506 Schliesche Jan Polizei SV Eutin 1960 01:00:07 M45 85 308
507 Zippel Ricardo Scuzzlebutt 1982 01:00:09 MHK 29 515
508 Eckelmann Heiner TV Bad Bergzabern 1964 01:00:10 M40 85 227
509 Frey Charles Oberhoffen les Wissembourg FRA 1957 01:00:12 M50 46 415
510 Rosenfelder Emmanuel OH Morsbronn FRA 1974 01:00:15 M30 43 465
511 Weit Emilia 10-5 AOK 1968 01:00:19 W40 19 32
512 Luces Andrea Schiltigheim FRA 1967 01:00:24 W40 20 203
513 Huber Bernd FW Mutterstadt 1951 01:00:28 M55 39 666
514 Kachelhoffer Patrik Seebach FRA 1963 01:00:30 M45 86 29
515 Carleo Marisa memler.de 1982 01:00:31 WHK 12 312
516 Serr Christel Vita Parc Stuttgart 1936 01:00:33 W70 1 3
517 Klinck Walter Oberstaufenbach 1962 01:00:36 M45 87 245
518 Moster Bruno TSG Niefern 1945 01:00:37 M60 15 133
519 Creutzmann Jürgen Karlsruhe 1979 01:00:41 MHK 30 309
520 Rehberg Michael JU Max 1967 01:00:43 M40 86 6
521 Weber Sandrine Drusenheim FRA 1971 01:00:45 W35 17 237
522 Stoltz Richard Munchhausen FRA 1952 01:00:46 M55 40 238
523 Höffner Kai TV Bad Bergzabern 1977 01:00:52 M30 44 484
524 Broda Maximilian TV Bad Bergzabern 1994 01:00:53 MSA 11 354
525 Höniges Harry memler.de 1980 01:00:54 MHK 31 311
526 Laux Roswitha TV Herxheim 1950 01:00:56 W55 6 592
527 Aengenheyster Guido KSV LWT Kevelaer 1960 01:01:11 M45 88 303
528 Kuntz Samira LLG Drei Buchen 1989 01:01:15 WJA 2 704
529 Keiz Peter Gesundh.werkstatt Dudenhofen 1953 01:01:23 M55 41 254
530 Rupp Martin MGV Dierbach 1984 01:01:28 MHK 32 605
531 Dueborgdioe Jürgen TV Bad Bergzabern 1961 01:01:34 M45 89 481
532 Weigel Melanie Scuzzlebutt 1982 01:01:41 WHK 13 512
533 Ermers Karl Heinz KSV LWT Kevelaer 1942 01:01:43 M65 5 305
534 Strubel Achim Haßloch 1959 01:02:26 M45 90 349
535 Eichenlaub Valerie Riedseltz FRA 1977 01:02:32 W30 5 534
536 Zerr Sandrine OH Morsbronn FRA 1969 01:02:33 W35 18 270
537 Philipps Veronique Niederroedern FRA 1973 01:02:37 W35 19 939
538 Schimmel Barbara mein-erster-marathon.de 1959 01:02:41 W45 20 374
539 Meyer Sandra Landau 1982 01:02:42 WHK 14 546
540 Schindler Thomas Landau 1978 01:02:43 M30 45 547
541 Wulf Eva .. 1977 01:02:51 W30 6 620
542 Voigt Maria LT Bad Dürrheim 1949 01:02:52 W55 7 264
543 Taubert Gerhard LT Bad Dürrheim 1941 01:02:53 M65 6 267
544 Smerlewski Erika Freie Läufer Heidelberg 1944 01:02:54 W60 3 259
545 Seitlinger Norbert Elchesheim-Illingen 1965 01:03:03 M40 87 35
546 Blumenstiel Patricia LG Guttenburg Oberotterbach 1966 01:03:12 W40 21 574
547 Kleinert Birgit Aventure Extreme FRA 1965 01:03:17 W40 22 121
548 Wieland Corinna Karlsruhe 1972 01:03:18 W35 20 112
549 Hoffmeyer Michele Aventure Extreme FRA 1969 01:03:29 W35 21 123
550 Schalck Denis ANA RAC Wissembourg FRA 1961 01:03:55 M45 91 569
551 Doyet Marlene ANA RAC Wissembourg FRA 1950 01:04:02 W55 8 676
552 Eichenlaub Michel Riedseltz FRA 1952 01:04:03 M55 42 536
553 Bayer Marie-Louise TV Bad Bergzabern 1946 01:04:04 W60 4 75
554 Büchler Stephanie mein-erster-marathon.de 1969 01:04:08 W35 22 378
555 Siegel Heinz TV Bad Bergzabern 1946 01:04:10 M60 16 99
556 Schmieder Christine mein-erster-marathon.de 1964 01:04:25 W40 23 369
557 Filz Carolin Scuzzlebutt 1983 01:04:34 WHK 15 606
558 Doll Günter LLG Drei Buchen 1936 01:04:53 M70 9 229
559 Semmelsberger Annette Landau 1969 01:05:02 W35 23 195
560 Mnich Daniela Privat 1969 01:05:16 W35 24 664
561 Burhenne Monika mein-erster-marathon.de 1953 01:05:25 W55 9 373
562 Ammann Angelika Rock'n Roll-Club Karlsruhe 1957 01:05:25 W50 11 533
563 Kniesel Rita LG Rülzheim 1952 01:05:42 W55 10 421
564 Kniesel Horst LG Rülzheim 1944 01:05:43 M60 17 422
565 Birkmeyer Rainer Mühlhausen-Kraichgau 1966 01:06:09 M40 88 357
566 Dorn Kay TV Bad Bergzabern 1963 01:06:23 M45 92 232
567 Göltz Claudia TV Bad Bergzabern 1966 01:06:28 W40 24 641
568 Kornmann Pascal TV Bad Bergzabern 1991 01:06:30 MJB 8 648
569 Hess Inge Finn-Eileen 1949 01:06:40 W55 11 640
570 Raile Gabriel .. 1959 01:06:52 M45 93 622
571 Küsters Gertrud SG Stern 1958 01:06:52 W50 12 621
572 Müller-Gablenz Helga mein-erster-marathon.de 1949 01:07:02 W55 12 371
573 Wiedemann Jürgen SSC Karlsruhe 1944 01:07:32 M60 18 455
574 Scheer-Rehberg Silke Jumax 1972 01:07:46 W35 25 477
575 Halipret Marie Noel Betoncourt les Brot FRA 1961 01:07:49 W45 21 241
576 Heussmann Ines Gotha / Thüringen 1963 01:08:38 W45 22 189
577 Sander Giovanni Gleishorbach 1941 01:08:38 M65 7 190
578 Klotz Jasmine mem2008 1964 01:08:46 W40 25 361
579 Mnich Bernhard Privat 1962 01:09:07 M45 94 663
580 Lauricella Marion mein-erster-marathon.de 1963 01:09:09 W45 23 278
581 Mussler Reinhard mein-erster-marathon.de 1959 01:09:10 M45 95 389
582 Wagner Michael Schachclub Ingersheim 1960 01:09:25 M45 96 47
583 Herzel Alfred LG Kraichtal 1933 01:09:42 M75 1 434
584 Schmidt Angela memler.de 1959 01:09:58 W45 24 314
585 Suss Etienne OH Morsbronn FRA 1939 01:10:23 M65 8 392
586 Ring Elisabeth TV Rheinzabern 1961 01:10:52 W45 25 15
587 Rausch Walter TSG Wiesloch 1948 01:11:02 M60 19 194
588 Dorn Andrea TV Bad Bergzabern 1965 01:11:04 W40 26 231
589 Ernst Josefine LLG Drei Buchen 1951 01:11:05 W55 13 205
590 Ernst Friedrich LLG Drei Buchen 1939 01:11:06 M65 9 206
591 Fischer Bärbel TV Bad Bergzabern 1955 01:11:09 W50 13 67
592 Starck Wolfgang TV Bad Bergzabern 1961 01:11:10 M45 97 226
593 Kreißl Reiner memler.de 1955 01:11:16 M50 47 548
594 Kleinhans Susanne LG Kraichtal 1963 01:11:46 W45 26 435
595 v.Hahn Philipp Gemünden 1928 01:11:52 M75 2 59
596 Maurer Rosemarie SG Stern Gaggenau 1951 01:11:54 W55 14 625
597 Roller Nathalie Wissembourg FRA 1968 01:11:54 W40 27 628
598 Brauer Ernst TV Bad Bergzabern 1952 01:11:55 M55 43 64
599 Brauer Heidi TV Bad Bergzabern 1953 01:11:56 W55 15 63
600 Fischer Evelyne RSC Dahn 1957 01:13:20 W50 14 564
601 Wiedermann Ralf RSC Felsenland 1965 01:15:27 M40 89 566
602 Potschka-Herrmann Marion TV Bad Bergzabern 1952 01:15:39 W55 16 66
603 Hiller Birgit Heidelberg 1958 01:21:28 W50 15 55
604 Serr Manfred Vita Parc Stuttgart 1933 01:22:35 M75 3 4
605 Gay Ingrid LAC Insheim 1969 01:23:30 W35 26 501
606 Miksch Maria LAC Insheim 1962 01:23:31 W45 27 500
607 Widmann Elke Detmold 1960 01:30:42 W45 28 301
608 Ferry Caroline AS CPAM Strasbourg FRA 1971 01:39:58 W35 27 394
609 Boudgoust Remy Betschdorf FRA 1954 01:42:21 M50 48 407
610 Erlenmeyer Brigitte Betschdorf FRA 1966 01:42:23 W40 28 419
611 Schneider Albert Betschdorf FRA 1964 01:42:26 M40 90 409
612 Heintzelmann Florence .. FFA 1964 01:42:30 W40 29 583
613 Heintzelmann Jena-Piere .. FFA 1961 01:42:32 M45 98 584
614 Billon Nicole AS CPAM Strasbourg FRA 1971 01:42:47 W35 28 395